sensor_id;sensor_type;location;lat;lon;timestamp;P1;durP1;ratioP1;P2;durP2;ratioP2
75971;SDS011;64651;47.540;19.088;2023-02-28T00:00:35;25.83;;;9.23;;
75971;SDS011;64651;47.540;19.088;2023-02-28T00:05:38;21.70;;;8.70;;
75971;SDS011;64651;47.540;19.088;2023-02-28T00:10:41;21.73;;;9.73;;
75971;SDS011;64651;47.540;19.088;2023-02-28T00:15:43;23.65;;;9.48;;
75971;SDS011;64651;47.540;19.088;2023-02-28T00:20:47;19.83;;;8.37;;
75971;SDS011;64651;47.540;19.088;2023-02-28T00:25:49;22.23;;;9.63;;
75971;SDS011;64651;47.540;19.088;2023-02-28T00:30:51;19.20;;;8.13;;
75971;SDS011;64651;47.540;19.088;2023-02-28T00:36:01;22.23;;;8.63;;
75971;SDS011;64651;47.540;19.088;2023-02-28T00:41:08;21.75;;;8.48;;
75971;SDS011;64651;47.540;19.088;2023-02-28T00:46:10;22.20;;;9.23;;
75971;SDS011;64651;47.540;19.088;2023-02-28T00:51:13;21.55;;;8.98;;
75971;SDS011;64651;47.540;19.088;2023-02-28T00:56:15;21.43;;;8.93;;
75971;SDS011;64651;47.540;19.088;2023-02-28T01:01:17;28.33;;;10.60;;
75971;SDS011;64651;47.540;19.088;2023-02-28T01:06:19;28.27;;;10.80;;
75971;SDS011;64651;47.540;19.088;2023-02-28T01:11:21;22.37;;;9.07;;
75971;SDS011;64651;47.540;19.088;2023-02-28T01:16:23;21.50;;;9.10;;
75971;SDS011;64651;47.540;19.088;2023-02-28T01:21:25;23.63;;;9.30;;
75971;SDS011;64651;47.540;19.088;2023-02-28T01:26:29;23.08;;;9.52;;
75971;SDS011;64651;47.540;19.088;2023-02-28T01:31:31;22.62;;;8.85;;
75971;SDS011;64651;47.540;19.088;2023-02-28T01:36:33;22.17;;;9.70;;
75971;SDS011;64651;47.540;19.088;2023-02-28T01:41:35;22.58;;;9.07;;
75971;SDS011;64651;47.540;19.088;2023-02-28T01:46:37;21.03;;;8.67;;
75971;SDS011;64651;47.540;19.088;2023-02-28T01:51:50;21.58;;;9.27;;
75971;SDS011;64651;47.540;19.088;2023-02-28T01:57:00;18.77;;;8.48;;
75971;SDS011;64651;47.540;19.088;2023-02-28T02:02:09;23.87;;;8.60;;
75971;SDS011;64651;47.540;19.088;2023-02-28T02:07:12;22.15;;;9.57;;
75971;SDS011;64651;47.540;19.088;2023-02-28T02:12:23;22.17;;;8.73;;
75971;SDS011;64651;47.540;19.088;2023-02-28T02:18:36;22.75;;;8.90;;
75971;SDS011;64651;47.540;19.088;2023-02-28T02:45:16;19.25;;;8.75;;
75971;SDS011;64651;47.540;19.088;2023-02-28T02:50:29;21.55;;;8.75;;
75971;SDS011;64651;47.540;19.088;2023-02-28T02:55:38;21.23;;;8.87;;
75971;SDS011;64651;47.540;19.088;2023-02-28T03:00:46;20.55;;;8.95;;
75971;SDS011;64651;47.540;19.088;2023-02-28T03:05:52;24.80;;;10.07;;
75971;SDS011;64651;47.540;19.088;2023-02-28T03:10:58;23.30;;;10.10;;
75971;SDS011;64651;47.540;19.088;2023-02-28T03:21:14;20.90;;;8.77;;
75971;SDS011;64651;47.540;19.088;2023-02-28T03:26:27;20.48;;;8.80;;
75971;SDS011;64651;47.540;19.088;2023-02-28T03:31:38;21.77;;;9.00;;
75971;SDS011;64651;47.540;19.088;2023-02-28T03:36:47;22.30;;;8.70;;
75971;SDS011;64651;47.540;19.088;2023-02-28T03:42:01;19.23;;;7.70;;
75971;SDS011;64651;47.540;19.088;2023-02-28T03:47:12;19.17;;;7.77;;
75971;SDS011;64651;47.540;19.088;2023-02-28T03:52:19;19.37;;;8.05;;
75971;SDS011;64651;47.540;19.088;2023-02-28T04:03:06;19.10;;;7.25;;
75971;SDS011;64651;47.540;19.088;2023-02-28T04:08:08;16.62;;;6.65;;
75971;SDS011;64651;47.540;19.088;2023-02-28T04:13:10;18.23;;;6.70;;
75971;SDS011;64651;47.540;19.088;2023-02-28T04:18:13;19.05;;;7.22;;
75971;SDS011;64651;47.540;19.088;2023-02-28T04:23:15;15.53;;;6.50;;
75971;SDS011;64651;47.540;19.088;2023-02-28T04:28:17;16.30;;;6.07;;
75971;SDS011;64651;47.540;19.088;2023-02-28T04:33:19;16.83;;;6.32;;
75971;SDS011;64651;47.540;19.088;2023-02-28T04:38:21;14.80;;;5.20;;
75971;SDS011;64651;47.540;19.088;2023-02-28T04:43:23;14.35;;;5.55;;
75971;SDS011;64651;47.540;19.088;2023-02-28T04:48:27;15.33;;;5.17;;
75971;SDS011;64651;47.540;19.088;2023-02-28T04:53:31;15.13;;;5.55;;
75971;SDS011;64651;47.540;19.088;2023-02-28T04:58:33;14.77;;;5.60;;
75971;SDS011;64651;47.540;19.088;2023-02-28T05:03:36;16.33;;;6.20;;
75971;SDS011;64651;47.540;19.088;2023-02-28T05:08:38;15.07;;;5.10;;
75971;SDS011;64651;47.540;19.088;2023-02-28T05:13:41;14.47;;;5.67;;
75971;SDS011;64651;47.540;19.088;2023-02-28T05:18:43;15.75;;;5.60;;
75971;SDS011;64651;47.540;19.088;2023-02-28T05:23:46;13.30;;;5.03;;
75971;SDS011;64651;47.540;19.088;2023-02-28T05:28:48;14.27;;;5.77;;
75971;SDS011;64651;47.540;19.088;2023-02-28T05:33:51;17.90;;;5.82;;
75971;SDS011;64651;47.540;19.088;2023-02-28T05:38:53;13.73;;;5.10;;
75971;SDS011;64651;47.540;19.088;2023-02-28T05:43:55;17.08;;;5.65;;
75971;SDS011;64651;47.540;19.088;2023-02-28T05:48:59;14.23;;;5.30;;
75971;SDS011;64651;47.540;19.088;2023-02-28T05:54:02;14.07;;;5.20;;
75971;SDS011;64651;47.540;19.088;2023-02-28T05:59:04;14.80;;;5.53;;
75971;SDS011;64651;47.540;19.088;2023-02-28T06:04:08;16.53;;;6.33;;
75971;SDS011;64651;47.540;19.088;2023-02-28T06:09:26;13.20;;;4.90;;
75971;SDS011;64651;47.540;19.088;2023-02-28T06:14:28;14.63;;;5.30;;
75971;SDS011;64651;47.540;19.088;2023-02-28T06:19:30;11.70;;;4.33;;
75971;SDS011;64651;47.540;19.088;2023-02-28T06:24:32;13.77;;;5.22;;
75971;SDS011;64651;47.540;19.088;2023-02-28T06:29:35;15.97;;;5.17;;
75971;SDS011;64651;47.540;19.088;2023-02-28T06:34:37;12.82;;;4.70;;
75971;SDS011;64651;47.540;19.088;2023-02-28T06:39:39;14.90;;;5.03;;
75971;SDS011;64651;47.540;19.088;2023-02-28T06:44:41;13.60;;;4.97;;
75971;SDS011;64651;47.540;19.088;2023-02-28T06:49:44;14.07;;;4.93;;
75971;SDS011;64651;47.540;19.088;2023-02-28T06:54:46;14.30;;;5.10;;
75971;SDS011;64651;47.540;19.088;2023-02-28T06:59:49;14.55;;;4.62;;
75971;SDS011;64651;47.540;19.088;2023-02-28T07:04:51;13.90;;;4.70;;
75971;SDS011;64651;47.540;19.088;2023-02-28T07:09:53;13.23;;;5.43;;
75971;SDS011;64651;47.540;19.088;2023-02-28T07:14:56;16.27;;;5.82;;
75971;SDS011;64651;47.540;19.088;2023-02-28T07:19:58;12.80;;;5.10;;
75971;SDS011;64651;47.540;19.088;2023-02-28T07:25:00;12.32;;;4.87;;
75971;SDS011;64651;47.540;19.088;2023-02-28T07:30:03;13.65;;;5.32;;
75971;SDS011;64651;47.540;19.088;2023-02-28T07:35:05;14.10;;;5.50;;
75971;SDS011;64651;47.540;19.088;2023-02-28T07:40:09;13.95;;;5.32;;
75971;SDS011;64651;47.540;19.088;2023-02-28T07:45:15;15.57;;;6.00;;
75971;SDS011;64651;47.540;19.088;2023-02-28T07:50:17;14.57;;;5.28;;
75971;SDS011;64651;47.540;19.088;2023-02-28T07:55:19;15.48;;;5.90;;
75971;SDS011;64651;47.540;19.088;2023-02-28T08:00:22;14.57;;;5.73;;
75971;SDS011;64651;47.540;19.088;2023-02-28T08:05:24;17.33;;;5.55;;
75971;SDS011;64651;47.540;19.088;2023-02-28T08:10:27;15.37;;;6.17;;
75971;SDS011;64651;47.540;19.088;2023-02-28T08:15:29;14.18;;;5.20;;
75971;SDS011;64651;47.540;19.088;2023-02-28T08:20:33;14.40;;;5.70;;
75971;SDS011;64651;47.540;19.088;2023-02-28T08:25:36;17.87;;;5.50;;
75971;SDS011;64651;47.540;19.088;2023-02-28T08:30:38;14.27;;;5.62;;
75971;SDS011;64651;47.540;19.088;2023-02-28T08:35:42;12.67;;;5.37;;
75971;SDS011;64651;47.540;19.088;2023-02-28T08:40:44;13.50;;;5.85;;
75971;SDS011;64651;47.540;19.088;2023-02-28T08:45:46;15.13;;;5.62;;
75971;SDS011;64651;47.540;19.088;2023-02-28T08:50:56;12.70;;;5.47;;
75971;SDS011;64651;47.540;19.088;2023-02-28T08:56:09;12.27;;;4.57;;
75971;SDS011;64651;47.540;19.088;2023-02-28T09:06:38;13.38;;;5.15;;
75971;SDS011;64651;47.540;19.088;2023-02-28T09:11:40;11.70;;;5.20;;
75971;SDS011;64651;47.540;19.088;2023-02-28T09:16:42;13.40;;;5.00;;
75971;SDS011;64651;47.540;19.088;2023-02-28T09:21:45;11.35;;;5.18;;
75971;SDS011;64651;47.540;19.088;2023-02-28T09:26:47;12.97;;;5.57;;
75971;SDS011;64651;47.540;19.088;2023-02-28T09:32:05;12.93;;;5.43;;
75971;SDS011;64651;47.540;19.088;2023-02-28T09:37:07;12.77;;;5.22;;
75971;SDS011;64651;47.540;19.088;2023-02-28T09:42:21;11.60;;;5.00;;
75971;SDS011;64651;47.540;19.088;2023-02-28T09:47:31;10.85;;;5.15;;
75971;SDS011;64651;47.540;19.088;2023-02-28T09:52:36;11.67;;;5.43;;
75971;SDS011;64651;47.540;19.088;2023-02-28T09:57:38;12.27;;;5.68;;
75971;SDS011;64651;47.540;19.088;2023-02-28T10:03:47;12.15;;;5.62;;
75971;SDS011;64651;47.540;19.088;2023-02-28T10:08:30;11.33;;;5.00;;
75971;SDS011;64651;47.540;19.088;2023-02-28T10:13:49;11.25;;;5.15;;
75971;SDS011;64651;47.540;19.088;2023-02-28T10:19:00;12.20;;;5.50;;
75971;SDS011;64651;47.540;19.088;2023-02-28T10:29:15;13.10;;;5.45;;
75971;SDS011;64651;47.540;19.088;2023-02-28T10:34:17;11.43;;;5.57;;
75971;SDS011;64651;47.540;19.088;2023-02-28T10:44:48;10.77;;;5.47;;
75971;SDS011;64651;47.540;19.088;2023-02-28T10:49:50;12.35;;;5.82;;
75971;SDS011;64651;47.540;19.088;2023-02-28T10:54:56;12.48;;;5.95;;
75971;SDS011;64651;47.540;19.088;2023-02-28T11:00:20;12.70;;;6.03;;
75971;SDS011;64651;47.540;19.088;2023-02-28T11:10:31;12.43;;;6.20;;
75971;SDS011;64651;47.540;19.088;2023-02-28T11:15:36;12.25;;;5.85;;
75971;SDS011;64651;47.540;19.088;2023-02-28T11:20:38;13.18;;;6.03;;
75971;SDS011;64651;47.540;19.088;2023-02-28T11:25:46;13.63;;;6.00;;
75971;SDS011;64651;47.540;19.088;2023-02-28T11:30:59;12.52;;;5.82;;
75971;SDS011;64651;47.540;19.088;2023-02-28T11:36:10;12.97;;;6.20;;
75971;SDS011;64651;47.540;19.088;2023-02-28T11:47:00;13.62;;;6.05;;
75971;SDS011;64651;47.540;19.088;2023-02-28T11:57:56;11.52;;;5.90;;
75971;SDS011;64651;47.540;19.088;2023-02-28T12:19:39;11.60;;;5.37;;
75971;SDS011;64651;47.540;19.088;2023-02-28T12:29:58;11.03;;;4.70;;
75971;SDS011;64651;47.540;19.088;2023-02-28T12:35:26;11.45;;;5.07;;
75971;SDS011;64651;47.540;19.088;2023-02-28T12:40:50;11.30;;;5.50;;
75971;SDS011;64651;47.540;19.088;2023-02-28T12:46:08;10.77;;;5.43;;
75971;SDS011;64651;47.540;19.088;2023-02-28T12:51:14;11.25;;;5.68;;
75971;SDS011;64651;47.540;19.088;2023-02-28T12:56:34;11.43;;;5.60;;
75971;SDS011;64651;47.540;19.088;2023-02-28T13:11:54;11.03;;;5.40;;
75971;SDS011;64651;47.540;19.088;2023-02-28T13:22:19;10.33;;;5.50;;
75971;SDS011;64651;47.540;19.088;2023-02-28T13:27:35;10.95;;;5.28;;
75971;SDS011;64651;47.540;19.088;2023-02-28T13:32:41;10.55;;;5.20;;
75971;SDS011;64651;47.540;19.088;2023-02-28T13:37:43;12.90;;;5.07;;
75971;SDS011;64651;47.540;19.088;2023-02-28T13:42:47;12.20;;;5.05;;
75971;SDS011;64651;47.540;19.088;2023-02-28T13:47:53;9.87;;;4.17;;
75971;SDS011;64651;47.540;19.088;2023-02-28T14:03:53;10.33;;;5.23;;
75971;SDS011;64651;47.540;19.088;2023-02-28T14:09:26;13.25;;;6.30;;
75971;SDS011;64651;47.540;19.088;2023-02-28T14:19:46;12.35;;;6.12;;
75971;SDS011;64651;47.540;19.088;2023-02-28T14:25:03;12.10;;;6.20;;
75971;SDS011;64651;47.540;19.088;2023-02-28T14:35:58;10.85;;;4.90;;
75971;SDS011;64651;47.540;19.088;2023-02-28T14:41:06;10.93;;;4.83;;
75971;SDS011;64651;47.540;19.088;2023-02-28T14:46:17;10.98;;;4.78;;
75971;SDS011;64651;47.540;19.088;2023-02-28T14:51:21;10.57;;;4.60;;
75971;SDS011;64651;47.540;19.088;2023-02-28T14:56:35;10.80;;;4.50;;
75971;SDS011;64651;47.540;19.088;2023-02-28T15:01:40;11.93;;;4.75;;
75971;SDS011;64651;47.540;19.088;2023-02-28T15:06:42;11.67;;;4.50;;
75971;SDS011;64651;47.540;19.088;2023-02-28T15:11:48;12.10;;;4.12;;
75971;SDS011;64651;47.540;19.088;2023-02-28T15:16:52;11.73;;;4.18;;
75971;SDS011;64651;47.540;19.088;2023-02-28T15:22:01;14.23;;;4.70;;
75971;SDS011;64651;47.540;19.088;2023-02-28T15:27:44;12.80;;;4.72;;
75971;SDS011;64651;47.540;19.088;2023-02-28T15:32:41;13.57;;;5.03;;
75971;SDS011;64651;47.540;19.088;2023-02-28T15:37:48;11.68;;;5.15;;
75971;SDS011;64651;47.540;19.088;2023-02-28T15:43:00;13.65;;;5.55;;
75971;SDS011;64651;47.540;19.088;2023-02-28T15:48:22;13.30;;;5.30;;
75971;SDS011;64651;47.540;19.088;2023-02-28T15:53:30;15.40;;;6.05;;
75971;SDS011;64651;47.540;19.088;2023-02-28T15:58:35;14.57;;;6.67;;
75971;SDS011;64651;47.540;19.088;2023-02-28T16:03:40;15.52;;;5.80;;
75971;SDS011;64651;47.540;19.088;2023-02-28T16:08:45;15.00;;;5.97;;
75971;SDS011;64651;47.540;19.088;2023-02-28T16:13:51;15.63;;;5.90;;
75971;SDS011;64651;47.540;19.088;2023-02-28T16:18:56;14.87;;;5.62;;
75971;SDS011;64651;47.540;19.088;2023-02-28T16:23:58;15.27;;;5.63;;
75971;SDS011;64651;47.540;19.088;2023-02-28T16:29:01;16.60;;;5.35;;
75971;SDS011;64651;47.540;19.088;2023-02-28T16:34:04;14.57;;;5.20;;
75971;SDS011;64651;47.540;19.088;2023-02-28T16:39:06;15.10;;;5.70;;
75971;SDS011;64651;47.540;19.088;2023-02-28T16:44:10;15.52;;;5.40;;
75971;SDS011;64651;47.540;19.088;2023-02-28T16:49:23;14.33;;;5.53;;
75971;SDS011;64651;47.540;19.088;2023-02-28T16:54:25;15.90;;;5.70;;
75971;SDS011;64651;47.540;19.088;2023-02-28T16:59:28;15.82;;;6.30;;
75971;SDS011;64651;47.540;19.088;2023-02-28T17:04:30;15.30;;;6.03;;
75971;SDS011;64651;47.540;19.088;2023-02-28T17:09:36;15.23;;;5.87;;
75971;SDS011;64651;47.540;19.088;2023-02-28T17:14:44;15.47;;;6.57;;
75971;SDS011;64651;47.540;19.088;2023-02-28T17:19:47;15.95;;;6.53;;
75971;SDS011;64651;47.540;19.088;2023-02-28T17:24:52;20.37;;;6.75;;
75971;SDS011;64651;47.540;19.088;2023-02-28T17:29:57;15.07;;;6.50;;
75971;SDS011;64651;47.540;19.088;2023-02-28T17:34:59;20.23;;;7.20;;
75971;SDS011;64651;47.540;19.088;2023-02-28T17:40:02;16.00;;;6.47;;
75971;SDS011;64651;47.540;19.088;2023-02-28T17:45:04;16.50;;;6.53;;
75971;SDS011;64651;47.540;19.088;2023-02-28T17:50:11;15.55;;;5.93;;
75971;SDS011;64651;47.540;19.088;2023-02-28T17:55:16;15.50;;;6.30;;
75971;SDS011;64651;47.540;19.088;2023-02-28T18:00:20;15.65;;;6.47;;
75971;SDS011;64651;47.540;19.088;2023-02-28T18:05:25;16.37;;;6.53;;
75971;SDS011;64651;47.540;19.088;2023-02-28T18:10:28;16.60;;;6.50;;
75971;SDS011;64651;47.540;19.088;2023-02-28T18:15:35;16.08;;;7.07;;
75971;SDS011;64651;47.540;19.088;2023-02-28T18:20:37;15.67;;;6.90;;
75971;SDS011;64651;47.540;19.088;2023-02-28T18:25:39;17.02;;;7.25;;
75971;SDS011;64651;47.540;19.088;2023-02-28T18:30:42;17.50;;;7.53;;
75971;SDS011;64651;47.540;19.088;2023-02-28T18:35:54;17.83;;;7.50;;
75971;SDS011;64651;47.540;19.088;2023-02-28T18:40:58;20.98;;;9.02;;
75971;SDS011;64651;47.540;19.088;2023-02-28T18:46:05;18.90;;;7.93;;
75971;SDS011;64651;47.540;19.088;2023-02-28T18:51:11;17.98;;;7.28;;
75971;SDS011;64651;47.540;19.088;2023-02-28T18:56:19;20.70;;;8.90;;
75971;SDS011;64651;47.540;19.088;2023-02-28T19:01:27;18.02;;;7.78;;
75971;SDS011;64651;47.540;19.088;2023-02-28T19:06:34;18.23;;;7.43;;
75971;SDS011;64651;47.540;19.088;2023-02-28T19:11:38;18.60;;;7.27;;
75971;SDS011;64651;47.540;19.088;2023-02-28T19:16:41;19.10;;;7.43;;
75971;SDS011;64651;47.540;19.088;2023-02-28T19:21:43;17.93;;;7.33;;
75971;SDS011;64651;47.540;19.088;2023-02-28T19:26:46;19.92;;;8.30;;
75971;SDS011;64651;47.540;19.088;2023-02-28T19:31:48;21.12;;;8.02;;
75971;SDS011;64651;47.540;19.088;2023-02-28T19:36:50;18.53;;;7.77;;
75971;SDS011;64651;47.540;19.088;2023-02-28T19:41:52;17.45;;;7.25;;
75971;SDS011;64651;47.540;19.088;2023-02-28T19:46:55;25.57;;;11.10;;
75971;SDS011;64651;47.540;19.088;2023-02-28T19:51:57;21.25;;;8.20;;
75971;SDS011;64651;47.540;19.088;2023-02-28T19:57:04;21.42;;;7.90;;
75971;SDS011;64651;47.540;19.088;2023-02-28T20:02:12;24.70;;;10.00;;
75971;SDS011;64651;47.540;19.088;2023-02-28T20:07:18;23.40;;;9.73;;
75971;SDS011;64651;47.540;19.088;2023-02-28T20:12:21;26.50;;;11.43;;
75971;SDS011;64651;47.540;19.088;2023-02-28T20:17:25;21.52;;;9.48;;
75971;SDS011;64651;47.540;19.088;2023-02-28T20:22:29;20.95;;;8.10;;
75971;SDS011;64651;47.540;19.088;2023-02-28T20:27:31;19.00;;;7.87;;
75971;SDS011;64651;47.540;19.088;2023-02-28T20:32:34;19.10;;;7.87;;
75971;SDS011;64651;47.540;19.088;2023-02-28T20:37:40;22.23;;;8.30;;
75971;SDS011;64651;47.540;19.088;2023-02-28T20:42:42;21.15;;;8.38;;
75971;SDS011;64651;47.540;19.088;2023-02-28T20:47:44;21.95;;;9.50;;
75971;SDS011;64651;47.540;19.088;2023-02-28T20:52:46;26.20;;;11.37;;
75971;SDS011;64651;47.540;19.088;2023-02-28T20:57:48;23.75;;;10.27;;
75971;SDS011;64651;47.540;19.088;2023-02-28T21:02:51;22.40;;;10.13;;
75971;SDS011;64651;47.540;19.088;2023-02-28T21:07:53;20.30;;;9.90;;
75971;SDS011;64651;47.540;19.088;2023-02-28T21:12:55;20.80;;;9.02;;
75971;SDS011;64651;47.540;19.088;2023-02-28T21:17:58;20.70;;;9.37;;
75971;SDS011;64651;47.540;19.088;2023-02-28T21:23:00;26.27;;;11.40;;
75971;SDS011;64651;47.540;19.088;2023-02-28T21:28:03;21.23;;;9.33;;
75971;SDS011;64651;47.540;19.088;2023-02-28T21:33:05;19.65;;;8.32;;
75971;SDS011;64651;47.540;19.088;2023-02-28T21:38:08;20.55;;;8.55;;
75971;SDS011;64651;47.540;19.088;2023-02-28T21:43:10;19.13;;;8.60;;
75971;SDS011;64651;47.540;19.088;2023-02-28T21:48:12;20.40;;;8.95;;
75971;SDS011;64651;47.540;19.088;2023-02-28T21:53:15;18.97;;;8.13;;
75971;SDS011;64651;47.540;19.088;2023-02-28T21:58:18;18.17;;;7.05;;
75971;SDS011;64651;47.540;19.088;2023-02-28T22:03:20;20.25;;;7.43;;
75971;SDS011;64651;47.540;19.088;2023-02-28T22:08:22;17.27;;;7.73;;
75971;SDS011;64651;47.540;19.088;2023-02-28T22:13:24;19.25;;;8.75;;
75971;SDS011;64651;47.540;19.088;2023-02-28T22:18:26;21.17;;;8.63;;
75971;SDS011;64651;47.540;19.088;2023-02-28T22:23:28;24.35;;;9.13;;
75971;SDS011;64651;47.540;19.088;2023-02-28T22:28:31;21.95;;;8.68;;
75971;SDS011;64651;47.540;19.088;2023-02-28T22:33:34;21.97;;;9.30;;
75971;SDS011;64651;47.540;19.088;2023-02-28T22:38:36;20.10;;;8.38;;
75971;SDS011;64651;47.540;19.088;2023-02-28T22:43:39;20.43;;;8.63;;
75971;SDS011;64651;47.540;19.088;2023-02-28T22:48:42;25.40;;;9.77;;
75971;SDS011;64651;47.540;19.088;2023-02-28T22:53:45;19.67;;;8.48;;
75971;SDS011;64651;47.540;19.088;2023-02-28T22:58:53;23.57;;;9.80;;
75971;SDS011;64651;47.540;19.088;2023-02-28T23:03:58;27.80;;;11.30;;
75971;SDS011;64651;47.540;19.088;2023-02-28T23:09:03;25.63;;;10.43;;
75971;SDS011;64651;47.540;19.088;2023-02-28T23:14:07;26.87;;;11.35;;
75971;SDS011;64651;47.540;19.088;2023-02-28T23:19:22;24.30;;;10.48;;
75971;SDS011;64651;47.540;19.088;2023-02-28T23:24:28;22.93;;;9.67;;
75971;SDS011;64651;47.540;19.088;2023-02-28T23:29:32;23.17;;;10.50;;
75971;SDS011;64651;47.540;19.088;2023-02-28T23:34:35;29.37;;;11.17;;
75971;SDS011;64651;47.540;19.088;2023-02-28T23:39:37;26.30;;;10.43;;
75971;SDS011;64651;47.540;19.088;2023-02-28T23:44:39;25.27;;;10.98;;
75971;SDS011;64651;47.540;19.088;2023-02-28T23:49:41;24.40;;;10.83;;
75971;SDS011;64651;47.540;19.088;2023-02-28T23:54:43;25.88;;;11.15;;
75971;SDS011;64651;47.540;19.088;2023-02-28T23:59:47;26.00;;;11.30;;
